Time;durP1;ratioP1;P1;durP2;ratioP2;P2;SDS_P1;SDS_P2;PMS_P1;PMS_P2;Temp;Humidity;BMP_temperature;BMP_pressure;BME280_temperature;BME280_humidity;BME280_pressure;Samples;Min_cycle;Max_cycle;Signal;HPM_P1;HPM_P2
2023/07/21 00:01:22;;;;;;;12.63;11.00;;;;;;;15.08;100.00;100914.13;5006093;28;20429;-73
2023/07/21 00:04:08;;;;;;;13.85;10.02;;;;;;;15.08;100.00;100914.13;5006044;28;20101;-73
2023/07/21 00:06:54;;;;;;;15.70;10.70;;;;;;;14.95;100.00;100917.22;5006101;28;20038;-73
2023/07/21 00:09:39;;;;;;;12.45;10.55;;;;;;;14.83;100.00;100927.53;4994744;28;20042;-73
2023/07/21 00:12:25;;;;;;;13.13;10.55;;;;;;;14.69;100.00;100916.97;4991174;28;21124;-73
2023/07/21 00:15:11;;;;;;;15.10;10.77;;;;;;;14.55;100.00;100922.91;5005468;28;20509;-73
2023/07/21 00:17:57;;;;;;;15.73;11.73;;;;;;;14.47;100.00;100921.75;5004631;28;20050;-73
2023/07/21 00:20:43;;;;;;;16.02;11.80;;;;;;;14.46;100.00;100921.88;5003456;28;20567;-73
2023/07/21 00:23:31;;;;;;;14.63;11.93;;;;;;;14.65;100.00;100921.06;4987009;28;20382;-73
2023/07/21 00:26:17;;;;;;;14.73;11.38;;;;;;;14.66;100.00;100918.16;5009387;28;20082;-73
2023/07/21 00:29:03;;;;;;;14.10;9.50;;;;;;;14.71;100.00;100923.22;5001647;28;20045;-73
2023/07/21 00:31:49;;;;;;;11.95;9.43;;;;;;;14.67;100.00;100916.25;5002859;28;20785;-73
2023/07/21 00:34:35;;;;;;;12.82;10.20;;;;;;;14.80;100.00;100913.19;5005362;28;20220;-73
2023/07/21 00:37:22;;;;;;;13.20;10.65;;;;;;;14.79;100.00;100914.19;5001278;28;20034;-73
2023/07/21 00:40:21;;;;;;;15.65;13.20;;;;;;;14.72;100.00;100911.16;4991090;28;20042;-73
2023/07/21 00:43:08;;;;;;;17.25;12.52;;;;;;;14.89;100.00;100918.69;5007815;28;20125;-72
2023/07/21 00:45:54;;;;;;;19.95;12.13;;;;;;;14.94;100.00;100907.22;4988897;28;20089;-73
2023/07/21 00:48:40;;;;;;;17.95;13.00;;;;;;;14.94;100.00;100911.84;5003681;28;20057;-73
2023/07/21 00:51:26;;;;;;;18.98;12.95;;;;;;;14.81;100.00;100910.28;5002612;28;20050;-73
2023/07/21 00:54:12;;;;;;;17.58;14.35;;;;;;;14.68;100.00;100906.97;5007522;28;20057;-72
2023/07/21 00:56:58;;;;;;;25.02;14.63;;;;;;;14.67;100.00;100908.84;5006516;28;20610;-73
2023/07/21 00:59:45;;;;;;;17.15;13.82;;;;;;;14.69;100.00;100908.69;5008003;28;20037;-72
2023/07/21 01:02:30;;;;;;;18.38;13.27;;;;;;;14.81;100.00;100901.16;5004745;28;20066;-73
2023/07/21 01:05:17;;;;;;;17.77;13.80;;;;;;;14.72;100.00;100897.38;5002383;28;20108;-72
2023/07/21 01:08:07;;;;;;;16.95;13.18;;;;;;;14.66;100.00;100893.34;5000866;28;20038;-73
2023/07/21 01:10:55;;;;;;;13.77;11.55;;;;;;;14.69;100.00;100895.81;5003309;28;20116;-73
2023/07/21 01:13:41;;;;;;;13.02;10.57;;;;;;;14.74;100.00;100891.72;5002024;28;20473;-73
2023/07/21 01:16:27;;;;;;;16.20;10.50;;;;;;;14.85;100.00;100884.16;4988896;28;20089;-73
2023/07/21 01:19:15;;;;;;;12.10;10.23;;;;;;;14.74;100.00;100884.34;5006770;28;20382;-73
2023/07/21 01:22:18;;;;;;;14.98;10.57;;;;;;;14.53;100.00;100877.09;5007032;28;20092;-73
2023/07/21 01:25:11;;;;;;;11.95;10.32;;;;;;;14.34;100.00;100879.84;5002963;28;20689;-73
2023/07/21 01:27:58;;;;;;;12.27;10.02;;;;;;;14.13;100.00;100877.22;4998665;28;20096;-73
2023/07/21 01:30:48;;;;;;;19.13;12.48;;;;;;;14.18;100.00;100871.31;5005319;28;20506;-73
2023/07/21 01:33:34;;;;;;;13.55;10.82;;;;;;;14.08;100.00;100871.28;5004360;28;20397;-73
2023/07/21 01:36:21;;;;;;;17.52;10.90;;;;;;;14.13;100.00;100867.13;5000354;28;20129;-73
2023/07/21 01:39:07;;;;;;;13.55;11.52;;;;;;;14.26;100.00;100864.03;4992650;28;20122;-73
2023/07/21 01:41:54;;;;;;;13.52;10.50;;;;;;;14.43;100.00;100864.31;5002426;28;20073;-73
2023/07/21 01:44:41;;;;;;;15.35;10.80;;;;;;;14.20;100.00;100861.91;4991359;28;20077;-73
2023/07/21 01:47:27;;;;;;;17.48;12.75;;;;;;;14.10;100.00;100856.38;5002030;28;20478;-73
2023/07/21 01:50:18;;;;;;;14.30;12.43;;;;;;;14.06;100.00;100854.06;5003896;28;20048;-73
2023/07/21 01:53:07;;;;;;;15.68;12.15;;;;;;;13.99;100.00;100853.75;4977870;28;20402;-73
2023/07/21 01:56:05;;;;;;;17.58;13.45;;;;;;;13.86;100.00;100850.44;5005276;28;20046;-73
2023/07/21 01:58:52;;;;;;;16.77;11.68;;;;;;;13.95;100.00;100847.69;5004688;28;20065;-72
2023/07/21 02:01:39;;;;;;;16.80;12.63;;;;;;;13.87;100.00;100852.16;4999359;28;20037;-73
2023/07/21 02:04:25;;;;;;;14.05;11.63;;;;;;;13.88;100.00;100849.25;5001740;28;20600;-73
2023/07/21 02:07:12;;;;;;;12.43;10.75;;;;;;;14.03;100.00;100851.59;5005982;28;20092;-73
2023/07/21 02:09:58;;;;;;;13.30;11.27;;;;;;;13.91;100.00;100843.47;5002756;28;20133;-73
2023/07/21 02:12:44;;;;;;;14.82;11.50;;;;;;;13.86;100.00;100850.44;5007409;28;20408;-73
2023/07/21 02:15:30;;;;;;;13.73;11.90;;;;;;;13.86;100.00;100845.78;5000974;28;20038;-73
2023/07/21 02:18:16;;;;;;;14.23;11.73;;;;;;;13.87;100.00;100839.28;5002804;28;20721;-73
2023/07/21 02:21:02;;;;;;;13.18;11.63;;;;;;;13.87;100.00;100839.28;5001045;28;20887;-73
2023/07/21 02:23:48;;;;;;;14.77;11.93;;;;;;;13.91;100.00;100842.59;4988937;28;20034;-73
2023/07/21 02:26:34;;;;;;;13.00;11.60;;;;;;;13.85;100.00;100843.16;4998256;28;20664;-73
2023/07/21 02:29:20;;;;;;;15.52;11.40;;;;;;;13.79;100.00;100837.22;4999740;28;20508;-73
2023/07/21 02:32:06;;;;;;;15.05;11.18;;;;;;;13.83;100.00;100839.69;4999059;28;20133;-73
2023/07/21 02:34:52;;;;;;;44.00;11.43;;;;;;;14.01;100.00;100832.47;4997936;28;20144;-73
2023/07/21 02:37:37;;;;;;;15.90;11.52;;;;;;;13.93;100.00;100835.06;4993500;28;20613;-73
2023/07/21 02:40:23;;;;;;;14.27;11.68;;;;;;;13.81;100.00;100839.84;5002430;28;20440;-73
2023/07/21 02:43:09;;;;;;;15.23;11.57;;;;;;;13.87;100.00;100838.38;5000972;28;20030;-73
2023/07/21 02:45:55;;;;;;;16.67;11.23;;;;;;;13.94;100.00;100832.16;4992142;28;20065;-74
2023/07/21 02:48:41;;;;;;;12.27;10.95;;;;;;;13.89;100.00;100828.97;5002160;28;20076;-73
2023/07/21 02:51:26;;;;;;;19.33;12.38;;;;;;;14.01;100.00;100829.72;5003345;28;20100;-73
2023/07/21 02:54:12;;;;;;;15.68;10.75;;;;;;;14.07;100.00;100833.75;5005379;28;20069;-73
2023/07/21 02:56:59;;;;;;;15.65;10.77;;;;;;;13.86;100.00;100836.66;5003174;28;20042;-73
2023/07/21 02:59:45;;;;;;;16.10;11.23;;;;;;;13.81;100.00;100831.59;4999615;28;20085;-73
2023/07/21 03:02:34;;;;;;;13.07;10.80;;;;;;;13.86;100.00;100832.03;5006481;28;20050;-73
2023/07/21 03:05:20;;;;;;;17.88;11.02;;;;;;;13.78;100.00;100818.97;5000709;28;20033;-73
2023/07/21 03:08:05;;;;;;;12.82;11.23;;;;;;;13.85;100.00;100824.75;5000020;28;20044;-73
2023/07/21 03:10:51;;;;;;;14.90;10.80;;;;;;;13.87;100.00;100822.75;4996733;28;20052;-74
2023/07/21 03:13:37;;;;;;;14.98;10.75;;;;;;;13.89;100.00;100826.22;5005427;28;20104;-74
2023/07/21 03:16:23;;;;;;;16.23;10.50;;;;;;;13.88;100.00;100827.22;5004190;28;20046;-74
2023/07/21 03:19:10;;;;;;;16.73;10.68;;;;;;;13.77;100.00;100821.84;4998229;28;20112;-73
2023/07/21 03:21:55;;;;;;;16.58;12.15;;;;;;;13.54;100.00;100824.00;5003856;28;20046;-74
2023/07/21 03:24:41;;;;;;;14.57;11.48;;;;;;;13.54;100.00;100826.75;4994285;28;20034;-73
2023/07/21 03:27:27;;;;;;;14.68;10.65;;;;;;;13.81;100.00;100823.31;4998269;28;20179;-73
2023/07/21 03:30:14;;;;;;;15.45;11.68;;;;;;;13.68;100.00;100822.75;4998145;28;20454;-73
2023/07/21 03:33:00;;;;;;;16.85;12.13;;;;;;;13.54;100.00;100822.16;4996822;28;20069;-73
2023/07/21 03:35:45;;;;;;;14.68;11.32;;;;;;;13.46;100.00;100821.09;4973961;28;20050;-74
2023/07/21 03:38:33;;;;;;;17.60;10.82;;;;;;;13.41;100.00;100818.75;5000213;28;20049;-73
2023/07/21 03:41:20;;;;;;;15.60;11.52;;;;;;;13.40;100.00;100820.66;4987864;28;20048;-73
2023/07/21 03:44:07;;;;;;;11.98;10.45;;;;;;;13.47;100.00;100828.34;5000432;28;20038;-73
2023/07/21 03:46:53;;;;;;;14.40;11.32;;;;;;;13.49;100.00;100829.06;5014155;28;20469;-73
2023/07/21 03:49:38;;;;;;;15.80;10.48;;;;;;;13.35;100.00;100820.19;5003799;28;20517;-72
2023/07/21 03:52:24;;;;;;;16.48;10.80;;;;;;;13.00;100.00;100824.25;4997776;28;20508;-73
2023/07/21 03:55:10;;;;;;;13.98;9.90;;;;;;;13.05;100.00;100821.97;4998446;28;20035;-73
2023/07/21 03:57:56;;;;;;;11.30;10.00;;;;;;;12.98;100.00;100814.38;4996985;28;20046;-73
2023/07/21 04:00:42;;;;;;;15.73;11.00;;;;;;;13.18;100.00;100813.47;4999061;28;20046;-73
2023/07/21 04:03:29;;;;;;;13.00;11.35;;;;;;;13.16;100.00;100809.97;4984938;28;20605;-72
2023/07/21 04:06:17;;;;;;;17.45;12.13;;;;;;;13.03;100.00;100812.09;5002557;28;20038;-73
2023/07/21 04:09:03;;;;;;;15.00;11.15;;;;;;;12.97;100.00;100813.53;5000908;28;20474;-73
2023/07/21 04:11:49;;;;;;;16.27;11.65;;;;;;;13.03;100.00;100814.84;4998713;28;20044;-73
2023/07/21 04:14:35;;;;;;;14.32;11.00;;;;;;;13.06;100.00;100815.44;4990415;28;20057;-73
2023/07/21 04:17:21;;;;;;;12.32;10.88;;;;;;;12.97;100.00;100816.28;5004282;28;20096;-73
2023/07/21 04:20:09;;;;;;;14.85;11.27;;;;;;;13.15;100.00;100818.34;5001386;28;20602;-73
2023/07/21 04:22:55;;;;;;;15.73;11.00;;;;;;;13.06;100.00;100818.19;4987923;28;20129;-74
2023/07/21 04:25:41;;;;;;;14.77;11.60;;;;;;;13.27;100.00;100816.38;4998208;28;20057;-76
2023/07/21 04:28:27;;;;;;;14.00;11.27;;;;;;;13.30;100.00;100814.22;5006089;28;20041;-74
2023/07/21 04:31:13;;;;;;;16.08;11.68;;;;;;;13.32;100.00;100812.22;5004029;28;20428;-75
2023/07/21 04:33:59;;;;;;;16.42;11.77;;;;;;;13.33;100.00;100804.84;5002343;28;20038;-76
2023/07/21 04:36:44;;;;;;;20.90;12.05;;;;;;;13.51;100.00;100805.91;5003529;28;20038;-76
2023/07/21 04:39:30;;;;;;;21.70;12.48;;;;;;;13.51;100.00;100805.91;4982802;28;20042;-75
2023/07/21 04:42:16;;;;;;;21.13;13.05;;;;;;;13.65;100.00;100807.38;5009444;28;20481;-73
2023/07/21 04:45:02;;;;;;;16.85;11.70;;;;;;;13.50;100.00;100811.56;5003939;28;20042;-75
2023/07/21 04:47:49;;;;;;;17.42;12.23;;;;;;;13.61;100.00;100805.94;5003555;28;20558;-75
2023/07/21 04:50:34;;;;;;;16.27;12.40;;;;;;;13.63;100.00;100809.41;4965840;28;20049;-76
2023/07/21 04:53:21;;;;;;;16.75;11.38;;;;;;;13.84;100.00;100802.88;5015493;28;20403;-77
2023/07/21 04:56:07;;;;;;;15.48;11.13;;;;;;;13.87;100.00;100810.88;5005759;28;20046;-76
2023/07/21 04:58:53;;;;;;;16.45;11.55;;;;;;;13.93;100.00;100804.78;4993151;28;20133;-77
2023/07/21 05:01:39;;;;;;;14.52;11.07;;;;;;;13.87;100.00;100805.34;5003923;28;20042;-76
2023/07/21 05:04:25;;;;;;;16.20;11.60;;;;;;;13.84;100.00;100812.03;5002421;28;20109;-73
2023/07/21 05:07:11;;;;;;;19.05;12.55;;;;;;;13.87;100.00;100806.25;5001815;28;20038;-75
2023/07/21 05:09:56;;;;;;;17.52;12.07;;;;;;;14.00;100.00;100805.94;4989321;28;20049;-73
2023/07/21 05:12:43;;;;;;;18.60;12.57;;;;;;;13.95;100.00;100795.38;5000665;28;20374;-74
2023/07/21 05:15:28;;;;;;;15.68;12.10;;;;;;;14.03;100.00;100802.91;5004685;28;20131;-75
2023/07/21 05:18:14;;;;;;;18.50;11.88;;;;;;;14.18;100.00;100796.94;4983844;28;20043;-74
2023/07/21 05:21:00;;;;;;;20.00;12.75;;;;;;;14.51;100.00;100798.34;5002523;28;20046;-75
2023/07/21 05:23:45;;;;;;;16.25;12.70;;;;;;;14.42;100.00;100793.72;4990158;28;20042;-74
2023/07/21 05:26:35;;;;;;;23.70;12.25;;;;;;;14.73;100.00;100797.16;5003256;28;20041;-74
2023/07/21 05:29:22;;;;;;;14.75;11.38;;;;;;;14.81;100.00;100790.91;5002538;28;20755;-75
2023/07/21 05:32:08;;;;;;;17.95;12.05;;;;;;;14.94;100.00;100785.03;5000571;28;20033;-74
2023/07/21 05:34:54;;;;;;;22.02;12.35;;;;;;;15.01;100.00;100776.00;4968856;28;20081;-75
2023/07/21 05:37:39;;;;;;;17.75;11.82;;;;;;;15.30;100.00;100775.00;5005456;28;20042;-74
2023/07/21 05:40:25;;;;;;;16.23;11.07;;;;;;;15.47;100.00;100778.78;5001298;28;20042;-74
2023/07/21 05:43:11;;;;;;;17.70;11.43;;;;;;;15.66;100.00;100782.44;5003210;28;20030;-74
2023/07/21 05:45:57;;;;;;;15.02;11.68;;;;;;;15.86;100.00;100778.53;5003663;28;20063;-74
2023/07/21 05:48:43;;;;;;;13.63;11.32;;;;;;;16.12;100.00;100784.13;5004990;28;20054;-74
2023/07/21 05:51:29;;;;;;;14.05;11.50;;;;;;;16.29;100.00;100782.34;5005026;28;20058;-75
2023/07/21 05:54:14;;;;;;;15.80;11.90;;;;;;;16.83;100.00;100773.03;5003206;28;20042;-75
2023/07/21 05:57:00;;;;;;;15.77;11.20;;;;;;;16.88;100.00;100784.50;5005388;28;20050;-75
2023/07/21 05:59:46;;;;;;;17.10;12.95;;;;;;;16.94;100.00;100783.84;5006718;28;20052;-75
2023/07/21 06:02:33;;;;;;;22.83;11.95;;;;;;;16.62;100.00;100792.78;5002043;28;20046;-73
2023/07/21 06:05:19;;;;;;;20.13;12.52;;;;;;;17.28;100.00;100794.00;5001466;28;20360;-75
2023/07/21 06:08:05;;;;;;;16.90;13.27;;;;;;;17.50;100.00;100803.63;5002918;28;20050;-73
2023/07/21 06:10:56;;;;;;;45.40;16.58;;;;;;;17.87;100.00;100793.13;5003642;28;20050;-74
2023/07/21 06:13:41;;;;;;;24.58;14.73;;;;;;;17.81;100.00;100797.47;4994068;28;20045;-73
2023/07/21 06:16:27;;;;;;;22.95;16.05;;;;;;;17.95;100.00;100795.94;4987727;28;20342;-74
2023/07/21 06:19:13;;;;;;;20.08;15.50;;;;;;;18.24;100.00;100800.16;4997568;28;20413;-74
2023/07/21 06:21:59;;;;;;;22.08;15.55;;;;;;;18.29;100.00;100795.78;4997123;28;20507;-74
2023/07/21 06:24:45;;;;;;;25.42;16.00;;;;;;;18.83;100.00;100799.91;5016052;28;20038;-73
2023/07/21 06:27:30;;;;;;;31.48;17.98;;;;;;;19.09;100.00;100803.31;5000940;28;20148;-74
2023/07/21 06:30:16;;;;;;;26.30;18.17;;;;;;;19.10;100.00;100795.84;5001654;28;20132;-74
2023/07/21 06:33:06;;;;;;;29.85;18.02;;;;;;;19.95;100.00;100808.13;4997574;28;20042;-73
2023/07/21 06:35:52;;;;;;;25.85;17.00;;;;;;;19.37;100.00;100800.09;4991994;28;20079;-74
2023/07/21 06:38:38;;;;;;;26.88;18.80;;;;;;;19.15;100.00;100795.31;5002432;28;20140;-74
2023/07/21 06:41:24;;;;;;;23.55;16.90;;;;;;;19.81;100.00;100787.56;4999225;28;20417;-73
2023/07/21 06:44:10;;;;;;;26.88;17.58;;;;;;;19.04;100.00;100789.13;5001407;28;20161;-73
2023/07/21 06:46:56;;;;;;;20.73;14.68;;;;;;;19.39;100.00;100788.78;4994798;28;20042;-74
2023/07/21 06:49:41;;;;;;;25.75;13.82;;;;;;;20.29;100.00;100781.78;4998545;28;20046;-73
2023/07/21 06:52:27;;;;;;;21.55;13.55;;;;;;;20.19;100.00;100777.34;5000879;28;20065;-73
2023/07/21 06:55:13;;;;;;;25.70;17.58;;;;;;;19.56;100.00;100787.66;4996532;28;20398;-73
2023/07/21 06:57:59;;;;;;;28.08;17.05;;;;;;;19.81;100.00;100784.78;5008770;28;20510;-73
2023/07/21 07:00:46;;;;;;;23.13;16.95;;;;;;;19.96;100.00;100779.28;5013011;28;20042;-73
2023/07/21 07:03:32;;;;;;;28.88;17.30;;;;;;;20.17;100.00;100785.00;4983077;28;20127;-74
2023/07/21 07:06:17;;;;;;;29.83;19.42;;;;;;;20.23;100.00;100777.81;5019096;28;20046;-74
2023/07/21 07:09:03;;;;;;;28.85;19.23;;;;;;;19.78;100.00;100786.00;5013670;28;20412;-74
2023/07/21 07:11:52;;;;;;;28.23;18.65;;;;;;;20.39;100.00;100777.69;5008132;28;20069;-74
2023/07/21 07:14:38;;;;;;;25.23;18.52;;;;;;;20.56;100.00;100772.84;4997731;28;20056;-74
2023/07/21 07:17:24;;;;;;;26.92;16.00;;;;;;;21.55;99.81;100776.44;5002795;28;20053;-74
2023/07/21 07:20:11;;;;;;;22.45;15.98;;;;;;;21.50;100.00;100771.44;5003010;28;20515;-75
2023/07/21 07:22:57;;;;;;;25.13;15.30;;;;;;;21.74;97.60;100774.91;5015906;28;20513;-73
2023/07/21 07:25:48;;;;;;;23.52;15.15;;;;;;;21.15;100.00;100770.28;5017063;28;20049;-73
2023/07/21 07:28:34;;;;;;;18.95;13.50;;;;;;;21.81;94.13;100776.72;5008298;28;20128;-74
2023/07/21 07:31:19;;;;;;;20.17;14.02;;;;;;;21.64;94.53;100775.25;4993967;28;20038;-74
2023/07/21 07:34:06;;;;;;;26.58;15.57;;;;;;;21.87;93.48;100769.50;4996965;28;20484;-73
2023/07/21 07:36:52;;;;;;;20.65;12.93;;;;;;;21.22;95.64;100771.28;5024925;28;20045;-73
2023/07/21 07:39:37;;;;;;;18.58;12.13;;;;;;;22.09;92.65;100783.47;5003576;28;20515;-74
2023/07/21 07:42:23;;;;;;;26.50;13.40;;;;;;;21.33;95.23;100784.69;5017827;28;20070;-74
2023/07/21 07:45:09;;;;;;;18.15;10.95;;;;;;;21.36;92.42;100784.28;5015929;28;20077;-74
2023/07/21 07:47:55;;;;;;;16.63;11.80;;;;;;;21.50;90.58;100790.06;5015386;28;20037;-74
2023/07/21 07:50:42;;;;;;;18.77;11.43;;;;;;;21.59;91.05;100786.09;5006431;28;20065;-73
2023/07/21 07:53:28;;;;;;;17.50;11.07;;;;;;;21.38;89.10;100787.78;5025894;28;20030;-74
2023/07/21 07:56:17;;;;;;;17.55;10.65;;;;;;;21.67;89.69;100784.06;5021724;28;20108;-74
2023/07/21 07:59:03;;;;;;;13.38;8.98;;;;;;;22.51;83.70;100782.59;5026134;28;20107;-73
2023/07/21 08:01:48;;;;;;;14.65;9.60;;;;;;;21.04;89.84;100780.03;5007432;28;20044;-74
2023/07/21 08:04:34;;;;;;;14.40;9.77;;;;;;;21.79;85.32;100780.75;5011519;28;20412;-78
2023/07/21 08:07:20;;;;;;;11.93;7.15;;;;;;;22.97;78.92;100772.78;5020316;28;20046;-74
2023/07/21 08:10:06;;;;;;;11.73;6.88;;;;;;;24.31;67.59;100776.13;5010925;28;20057;-74
2023/07/21 08:12:52;;;;;;;10.80;6.60;;;;;;;23.81;71.59;100784.84;5008988;28;20081;-74
2023/07/21 08:15:42;;;;;;;13.63;9.93;;;;;;;23.21;72.14;100774.25;5001933;28;20068;-74
2023/07/21 08:18:28;;;;;;;9.82;6.63;;;;;;;23.33;70.00;100782.06;5024205;28;20045;-74
2023/07/21 08:21:22;;;;;;;12.75;7.35;;;;;;;23.24;69.28;100778.59;5013950;28;20481;-75
2023/07/21 08:24:07;;;;;;;17.95;9.35;;;;;;;23.11;71.13;100777.44;5022292;28;20033;-75
2023/07/21 08:26:53;;;;;;;9.32;6.40;;;;;;;23.93;67.91;100785.09;5016555;28;20037;-74
2023/07/21 08:29:39;;;;;;;10.98;8.02;;;;;;;23.88;64.78;100770.91;5016376;28;20600;-75
2023/07/21 08:32:24;;;;;;;9.88;7.30;;;;;;;24.19;66.56;100779.53;5014926;28;20444;-75
2023/07/21 08:35:10;;;;;;;8.52;6.88;;;;;;;24.68;61.92;100785.84;5018271;28;20095;-75
2023/07/21 08:37:56;;;;;;;13.40;8.20;;;;;;;22.68;69.46;100771.13;5022005;28;20119;-74
2023/07/21 08:40:47;;;;;;;10.98;7.15;;;;;;;22.23;74.28;100770.50;5012852;28;20052;-74
2023/07/21 08:43:33;;;;;;;11.68;8.18;;;;;;;21.46;78.62;100773.72;5006968;28;20547;-74
2023/07/21 08:46:19;;;;;;;12.32;7.63;;;;;;;22.00;77.47;100777.13;5018471;28;20041;-74
2023/07/21 08:49:06;;;;;;;7.55;4.80;;;;;;;23.00;68.42;100777.97;5016275;28;20048;-74
2023/07/21 08:51:51;;;;;;;11.20;4.75;;;;;;;23.60;68.10;100772.72;5020896;28;20088;-74
2023/07/21 08:54:37;;;;;;;7.20;4.60;;;;;;;24.06;62.40;100781.47;5013182;28;20560;-74
2023/07/21 08:57:23;;;;;;;8.88;5.85;;;;;;;23.16;67.88;100776.81;5005177;28;20100;-75
2023/07/21 09:00:10;;;;;;;8.73;5.55;;;;;;;23.34;66.33;100765.09;5001825;28;20033;-75
2023/07/21 09:03:00;;;;;;;10.32;4.47;;;;;;;23.71;64.12;100764.78;5013822;28;20130;-75
2023/07/21 09:05:47;;;;;;;4.18;3.20;;;;;;;23.39;62.77;100756.94;5027814;28;20037;-74
2023/07/21 09:08:33;;;;;;;5.32;3.15;;;;;;;23.35;63.62;100765.94;4996134;28;20409;-74
2023/07/21 09:11:19;;;;;;;5.78;4.68;;;;;;;23.01;64.77;100757.38;5006097;28;20041;-73
2023/07/21 09:14:05;;;;;;;8.63;5.30;;;;;;;23.64;64.18;100756.38;5011287;28;20080;-74
2023/07/21 09:16:52;;;;;;;7.25;4.28;;;;;;;23.43;68.01;100757.38;5014866;28;20042;-74
2023/07/21 09:19:40;;;;;;;7.68;4.05;;;;;;;24.06;64.35;100765.53;5008607;28;20080;-74
2023/07/21 09:22:25;;;;;;;8.45;5.57;;;;;;;23.56;65.78;100760.22;5004835;28;20041;-74
2023/07/21 09:25:19;;;;;;;5.20;4.50;;;;;;;23.90;61.88;100763.16;4993103;28;20046;-74
2023/07/21 09:28:04;;;;;;;6.22;4.30;;;;;;;23.06;64.75;100762.34;5009030;28;20403;-74
2023/07/21 09:30:52;;;;;;;7.22;4.13;;;;;;;23.17;66.45;100761.78;5004068;28;20030;-74
2023/07/21 09:33:39;;;;;;;6.20;4.95;;;;;;;22.23;68.01;100770.50;5024245;28;20117;-74
2023/07/21 09:36:25;;;;;;;8.70;4.82;;;;;;;22.04;70.57;100761.75;5028550;28;20116;-74
2023/07/21 09:39:14;;;;;;;8.68;4.60;;;;;;;21.90;72.93;100757.94;5010281;28;20029;-74
2023/07/21 09:42:02;;;;;;;5.80;4.05;;;;;;;22.25;69.39;100760.00;5020036;28;20041;-74
2023/07/21 09:44:49;;;;;;;9.30;4.68;;;;;;;21.98;70.01;100755.03;5020261;28;20496;-73
2023/07/21 09:47:39;;;;;;;5.72;4.30;;;;;;;22.13;66.87;100760.53;5012237;28;20034;-74
2023/07/21 09:50:24;;;;;;;4.93;3.03;;;;;;;23.40;63.38;100755.88;5023962;28;20581;-75
2023/07/21 09:53:14;;;;;;;5.43;4.18;;;;;;;23.31;62.83;100760.75;5009104;28;20099;-75
2023/07/21 09:56:02;;;;;;;4.95;3.75;;;;;;;23.93;63.05;100755.19;5012055;28;20039;-74
2023/07/21 09:58:57;;;;;;;10.75;3.80;;;;;;;23.84;62.62;100753.66;5025352;28;20109;-74
2023/07/21 10:01:43;;;;;;;9.00;4.97;;;;;;;24.74;60.59;100756.97;5028955;28;20045;-74
2023/07/21 10:04:31;;;;;;;8.27;4.55;;;;;;;25.08;58.84;100757.75;5018735;28;20034;-74
2023/07/21 10:07:16;;;;;;;5.20;4.25;;;;;;;23.77;59.00;100748.03;5008941;28;20080;-74
2023/07/21 10:10:05;;;;;;;8.20;5.10;;;;;;;24.26;59.52;100753.50;5020717;28;20038;-74
2023/07/21 10:12:52;;;;;;;5.22;4.20;;;;;;;24.97;57.67;100746.34;5004899;28;20050;-75
2023/07/21 10:15:40;;;;;;;6.85;4.68;;;;;;;25.08;58.07;100751.28;5000398;28;20045;-74
2023/07/21 10:18:26;;;;;;;7.63;4.30;;;;;;;25.74;55.77;100746.50;5020537;28;20045;-75
2023/07/21 10:21:11;;;;;;;6.32;3.88;;;;;;;24.58;56.54;100738.69;5021859;28;20041;-74
2023/07/21 10:24:00;;;;;;;5.22;3.70;;;;;;;23.64;59.54;100745.19;5006475;28;20562;-74
2023/07/21 10:26:46;;;;;;;4.80;3.65;;;;;;;23.50;59.11;100733.13;5027740;28;20044;-74
2023/07/21 10:29:32;;;;;;;4.97;3.47;;;;;;;23.06;62.32;100734.41;5000527;28;20073;-74
2023/07/21 10:32:21;;;;;;;8.85;4.60;;;;;;;22.66;63.35;100736.94;4998484;28;20404;-73
2023/07/21 10:35:26;;;;;;;5.95;5.05;;;;;;;22.36;64.60;100729.63;5003119;28;20091;-74
2023/07/21 10:38:15;;;;;;;11.57;6.45;;;;;;;22.43;66.77;100734.41;5008214;28;20030;-74
2023/07/21 10:41:02;;;;;;;10.27;7.07;;;;;;;21.78;69.46;100731.66;5018472;28;20045;-74
2023/07/21 10:43:48;;;;;;;13.63;8.15;;;;;;;21.91;71.22;100725.38;4993889;28;20072;-74
2023/07/21 10:46:37;;;;;;;15.90;8.38;;;;;;;21.74;73.08;100720.06;5007262;28;20052;-74
2023/07/21 10:49:23;;;;;;;14.63;8.13;;;;;;;21.96;72.43;100734.00;5012982;28;20080;-74
2023/07/21 10:52:09;;;;;;;12.90;8.35;;;;;;;21.78;72.62;100729.75;5008874;28;20061;-74
2023/07/21 10:54:58;;;;;;;11.20;8.05;;;;;;;21.89;73.37;100725.56;5018717;28;20512;-74
2023/07/21 10:57:44;;;;;;;14.27;9.65;;;;;;;22.14;71.45;100723.22;5012563;28;20025;-74
2023/07/21 11:00:30;;;;;;;12.57;9.15;;;;;;;22.84;69.98;100722.47;5016083;28;20045;-74
2023/07/21 11:03:17;;;;;;;15.10;8.65;;;;;;;23.07;67.57;100724.97;5025055;28;20137;-74
2023/07/21 11:06:02;;;;;;;18.33;10.60;;;;;;;23.02;66.12;100722.78;5019209;28;20042;-73
2023/07/21 11:08:49;;;;;;;13.52;8.95;;;;;;;22.63;65.91;100715.91;5021082;28;20064;-74
2023/07/21 11:11:35;;;;;;;9.50;6.53;;;;;;;22.13;65.70;100724.28;5013277;28;20041;-74
2023/07/21 11:14:25;;;;;;;8.85;6.28;;;;;;;22.05;66.61;100721.63;4997328;28;20485;-73
2023/07/21 11:17:11;;;;;;;8.63;6.15;;;;;;;22.09;66.46;100727.69;5025674;28;20095;-74
2023/07/21 11:20:05;;;;;;;8.60;6.60;;;;;;;21.73;67.18;100729.47;5005843;28;20830;-74
2023/07/21 11:22:51;;;;;;;10.57;7.22;;;;;;;21.23;72.69;100734.00;5013758;28;20029;-74
2023/07/21 11:25:37;;;;;;;9.60;7.57;;;;;;;21.36;78.16;100741.66;4995450;28;20088;-74
2023/07/21 11:28:23;;;;;;;13.25;9.32;;;;;;;20.54;88.76;100752.66;4998058;28;20481;-74
2023/07/21 11:31:15;;;;;;;15.48;9.52;;;;;;;20.55;95.21;100750.78;5008525;28;20143;-74
2023/07/21 11:34:01;;;;;;;19.90;11.32;;;;;;;20.23;100.00;100763.94;4995035;28;20068;-73
2023/07/21 11:36:48;;;;;;;14.32;11.20;;;;;;;20.06;100.00;100767.91;5007141;28;20046;-73
2023/07/21 11:39:34;;;;;;;16.80;11.98;;;;;;;19.74;100.00;100776.28;5005867;28;20417;-73
2023/07/21 11:42:20;;;;;;;17.10;12.02;;;;;;;19.48;100.00;100773.84;5019406;28;20158;-73
2023/07/21 11:45:35;;;;;;;15.60;11.35;;;;;;;19.39;100.00;100773.00;5018757;28;20095;-73
2023/07/21 11:48:22;;;;;;;14.55;10.98;;;;;;;19.49;100.00;100781.09;5007370;28;20067;-72
2023/07/21 11:51:08;;;;;;;15.63;10.60;;;;;;;19.92;100.00;100777.91;5012176;28;20432;-73
2023/07/21 11:53:58;;;;;;;10.75;8.77;;;;;;;20.59;100.00;100782.72;5015237;28;20106;-73
2023/07/21 11:56:43;;;;;;;18.40;8.95;;;;;;;21.14;100.00;100780.59;5024054;28;20041;-73
2023/07/21 11:59:29;;;;;;;7.50;6.40;;;;;;;21.01;100.00;100792.38;5010195;28;20509;-74
2023/07/21 12:02:22;;;;;;;2.72;2.08;;;;;;;20.97;97.44;100795.75;5029875;28;20451;-73
2023/07/21 12:05:09;;;;;;;7.57;2.63;;;;;;;21.28;98.54;100792.75;5024215;28;20037;-73
2023/07/21 12:07:55;;;;;;;4.32;2.92;;;;;;;21.38;94.43;100796.13;5024447;28;20053;-73
2023/07/21 12:10:41;;;;;;;4.13;3.72;;;;;;;21.44;92.31;100795.31;5001258;28;20057;-73
2023/07/21 12:13:26;;;;;;;5.47;3.85;;;;;;;21.16;92.92;100794.31;5009267;28;20784;-73
2023/07/21 12:16:12;;;;;;;4.88;3.47;;;;;;;21.73;88.78;100801.94;5010876;28;20069;-73
2023/07/21 12:18:58;;;;;;;4.68;3.60;;;;;;;21.16;89.05;100797.09;5014304;28;20120;-74
2023/07/21 12:21:44;;;;;;;5.63;4.38;;;;;;;21.25;88.89;100804.28;5026481;28;20060;-74
2023/07/21 12:24:30;;;;;;;6.13;4.25;;;;;;;21.62;87.97;100803.28;5009098;28;20049;-74
2023/07/21 12:27:15;;;;;;;6.57;4.65;;;;;;;20.95;88.46;100807.06;5008889;28;20065;-73
2023/07/21 12:30:03;;;;;;;8.25;4.90;;;;;;;20.99;90.09;100802.84;5013594;28;20535;-73
2023/07/21 12:32:48;;;;;;;9.25;5.75;;;;;;;20.74;90.33;100802.25;5000160;28;20044;-73
2023/07/21 12:35:34;;;;;;;9.20;6.18;;;;;;;20.53;91.60;100806.59;5026190;28;20145;-73
2023/07/21 12:38:20;;;;;;;11.63;5.50;;;;;;;20.49;93.35;100810.78;5007202;28;20038;-73